CheckWX is a tool to help pilots better visualize weather data.  It is not intended as a substitute for an official pre-flight weather briefing.

16:54:55 UTC

FNDU TAF
Dundo Airport
Chitato, Angola
TAF FNDU 181045Z 1812/1824 15008KT CAVOK BECMG 1820/1822 35005KT 8000 NSC

Jun-18@
12:00 UTC

Jun-18 @ 12:00 UTC

Jun-18@
20:00 UTC

Jun-18 @ 20:00 UTC

TAF FNDU 181045Z 1812/1824 15008KT CAVOK
Wind
  • 150° at 8 KTS
Conditions
No significant weather
Cloud Levels
  • No significant clouds

Jun-18@
20:00 UTC

Jun-18 @ 20:00 UTC

Jun-19@
00:00 UTC

Jun-19 @ 00:00 UTC

BECMG 1820/1822 35005KT 8000 NSC

Becoming

Becoming Conditions expected by Tue, Jun 18, 2019 @ 22:00 UTC

Wind
  • 350° at 5 KTS
Conditions
No significant weather
Cloud Levels
  • No significant clouds